createdAt,value
2022-10-30T05:17:06.651Z,89.10
2022-10-30T05:19:33.483Z,90.08
2022-10-30T05:21:59.988Z,90.28
2022-10-30T05:24:26.440Z,91.23
2022-10-30T05:26:54.107Z,90.71
2022-10-30T05:29:20.944Z,90.93
2022-10-30T05:31:48.419Z,89.92
2022-10-30T05:34:14.796Z,89.28
2022-10-30T05:36:42.415Z,88.90
2022-10-30T05:39:09.829Z,89.60
2022-10-30T05:41:39.925Z,89.54
2022-10-30T05:44:07.274Z,90.18
2022-10-30T05:46:34.074Z,88.51
2022-10-30T05:49:17.997Z,88.24
2022-10-30T05:51:45.270Z,88.13
2022-10-30T05:54:11.989Z,87.64
2022-10-30T05:56:51.358Z,87.42
2022-10-30T05:59:18.680Z,87.25
2022-10-30T06:01:46.805Z,87.19
2022-10-30T06:04:13.325Z,86.94
2022-10-30T06:06:45.351Z,86.43
2022-10-30T06:09:12.852Z,86.97
2022-10-30T06:12:06.664Z,87.09
2022-10-30T06:14:43.623Z,88.43
2022-10-30T06:17:10.124Z,88.95
2022-10-30T06:19:56.792Z,89.29
2022-10-30T06:22:57.035Z,89.58
2022-10-30T06:25:33.116Z,89.96
2022-10-30T06:28:16.487Z,89.80
2022-10-30T06:30:42.997Z,89.63
2022-10-30T06:33:10.573Z,89.00
2022-10-30T06:35:40.127Z,88.93
2022-10-30T06:38:08.694Z,89.10
2022-10-30T06:40:35.652Z,90.18
2022-10-30T06:43:18.370Z,90.66
2022-10-30T06:45:58.140Z,89.74
2022-10-30T06:48:24.776Z,88.69
2022-10-30T06:50:58.988Z,88.19
2022-10-30T06:53:26.784Z,88.05
2022-10-30T06:55:59.172Z,87.64
2022-10-30T06:58:44.452Z,87.90
2022-10-30T07:01:29.591Z,87.09
2022-10-30T07:04:17.500Z,86.91
2022-10-30T07:06:44.591Z,87.30
2022-10-30T07:09:11.630Z,87.09
2022-10-30T07:11:42.124Z,87.09
2022-10-30T07:14:23.478Z,86.89
2022-10-30T07:17:11.758Z,86.32
2022-10-30T07:19:39.662Z,86.03
2022-10-30T07:22:06.151Z,86.59
2022-10-30T07:24:37.137Z,86.44
2022-10-30T07:27:29.925Z,87.12
2022-10-30T07:30:09.200Z,87.07
2022-10-30T07:33:10.145Z,87.47
2022-10-30T07:36:01.017Z,87.53
2022-10-30T07:38:51.880Z,88.16
2022-10-30T07:41:36.893Z,88.19
2022-10-30T07:44:32.014Z,88.66
2022-10-30T07:47:17.626Z,88.19
2022-10-30T07:49:49.078Z,87.09
2022-10-30T07:52:17.787Z,86.84
2022-10-30T07:54:46.978Z,87.27
2022-10-30T07:57:42.768Z,87.27
2022-10-30T08:00:28.075Z,87.66
2022-10-30T08:03:03.871Z,86.73
2022-10-30T08:05:54.914Z,86.38
2022-10-30T08:08:33.470Z,86.99
2022-10-30T08:11:10.888Z,87.86
2022-10-30T08:13:37.458Z,88.04
2022-10-30T08:16:03.957Z,88.42
2022-10-30T08:18:30.457Z,88.24
2022-10-30T08:20:56.951Z,87.94
2022-10-30T08:23:23.682Z,88.46
2022-10-30T08:25:50.153Z,88.14
2022-10-30T08:28:17.461Z,88.52
2022-10-30T08:30:44.631Z,88.37
2022-10-30T08:33:14.985Z,88.07
2022-10-30T08:35:58.995Z,88.35
2022-10-30T08:38:27.644Z,88.00
2022-10-30T08:41:12.178Z,88.49
2022-10-30T08:43:45.364Z,88.90
2022-10-30T08:46:11.908Z,87.76
2022-10-30T08:48:38.380Z,87.24
2022-10-30T08:51:07.057Z,87.53
2022-10-30T08:53:37.652Z,86.95
2022-10-30T08:56:09.560Z,88.26
2022-10-30T08:58:50.514Z,88.41
2022-10-30T09:01:19.054Z,88.11
2022-10-30T09:04:04.329Z,87.97
2022-10-30T09:06:53.883Z,87.65
2022-10-30T09:09:22.947Z,87.21
2022-10-30T09:11:52.296Z,87.38
2022-10-30T09:14:18.982Z,86.53
2022-10-30T09:16:45.495Z,86.19
2022-10-30T09:19:18.631Z,85.41
2022-10-30T09:21:46.273Z,85.57
2022-10-30T09:24:12.748Z,84.60
2022-10-30T09:26:39.167Z,84.30
2022-10-30T09:29:37.725Z,83.85
2022-10-30T09:32:10.073Z,84.29
2022-10-30T09:34:48.878Z,83.37
2022-10-30T09:37:23.144Z,83.27
2022-10-30T09:39:53.628Z,82.49
2022-10-30T09:42:39.127Z,82.27
2022-10-30T09:45:33.818Z,81.86
2022-10-30T09:48:06.382Z,80.92
2022-10-30T09:51:09.703Z,80.10
2022-10-30T09:54:05.713Z,79.58
2022-10-30T09:56:49.864Z,78.67
2022-10-30T09:59:54.854Z,77.94
2022-10-30T10:02:34.132Z,76.38
2022-10-30T10:05:17.370Z,77.47
2022-10-30T10:08:14.785Z,76.54
2022-10-30T10:11:08.726Z,76.52
2022-10-30T10:13:45.865Z,75.54
2022-10-30T10:16:35.257Z,74.09
2022-10-30T10:19:37.286Z,73.93
2022-10-30T10:22:18.850Z,73.15
2022-10-30T10:24:47.494Z,71.60
2022-10-30T10:27:36.293Z,71.60
2022-10-30T10:30:06.071Z,70.67
2022-10-30T10:32:48.993Z,70.47
2022-10-30T10:35:24.769Z,69.28
2022-10-30T10:37:57.857Z,68.90
2022-10-30T10:40:52.841Z,69.04
2022-10-30T10:43:28.673Z,68.53
2022-10-30T10:46:21.593Z,68.36
2022-10-30T10:49:10.748Z,67.20
2022-10-30T10:52:05.773Z,65.65
2022-10-30T10:54:41.834Z,66.15
2022-10-30T10:57:16.867Z,64.85
2022-10-30T10:59:52.945Z,64.00
2022-10-30T11:02:32.580Z,63.56
2022-10-30T11:05:12.690Z,63.51
2022-10-30T11:07:50.259Z,63.94
2022-10-30T11:10:19.316Z,63.02
2022-10-30T11:12:46.047Z,61.55
2022-10-30T11:15:26.416Z,60.34
2022-10-30T11:18:01.509Z,59.03
2022-10-30T11:20:40.957Z,58.28
2022-10-30T11:23:30.713Z,58.70
2022-10-30T11:25:57.192Z,56.49
2022-10-30T11:28:51.125Z,55.39
2022-10-30T11:31:30.201Z,55.17
2022-10-30T11:33:56.580Z,54.96
2022-10-30T11:36:25.034Z,52.96
2022-10-30T11:38:52.336Z,52.44
2022-10-30T11:41:20.368Z,49.98
2022-10-30T11:43:49.156Z,46.52
2022-10-30T11:46:22.453Z,45.89
2022-10-30T11:48:54.652Z,42.34
2022-10-30T11:51:40.001Z,42.38
2022-10-30T11:54:07.607Z,43.77
2022-10-30T11:56:35.851Z,40.73
2022-10-30T11:59:04.615Z,39.26
2022-10-30T12:02:04.414Z,38.83
2022-10-30T12:04:32.888Z,37.39
2022-10-30T12:07:29.150Z,36.37
2022-10-30T12:09:57.584Z,34.97
2022-10-30T12:12:28.886Z,34.82
2022-10-30T12:14:55.620Z,33.89
2022-10-30T12:17:22.877Z,34.13
2022-10-30T12:19:52.860Z,34.12
2022-10-30T12:22:30.145Z,32.11
2022-10-30T12:24:58.637Z,32.89
2022-10-30T12:27:25.850Z,36.11
2022-10-30T12:30:17.019Z,37.28
2022-10-30T12:32:58.238Z,33.99
2022-10-30T12:35:27.966Z,34.67
2022-10-30T12:37:54.861Z,34.20
2022-10-30T12:40:30.207Z,34.81
2022-10-30T12:43:12.357Z,32.43
2022-10-30T12:45:48.772Z,34.20
2022-10-30T12:48:37.248Z,32.43
2022-10-30T12:51:18.429Z,32.14
2022-10-30T12:54:20.224Z,34.06
2022-10-30T12:56:52.250Z,32.25
2022-10-30T12:59:34.950Z,32.62
2022-10-30T13:02:30.942Z,30.40
2022-10-30T13:05:03.980Z,31.71
2022-10-30T13:07:45.527Z,32.47
2022-10-30T13:10:27.157Z,32.64
2022-10-30T13:13:01.895Z,35.38
2022-10-30T13:15:33.579Z,34.61
2022-10-30T13:18:13.829Z,34.31
2022-10-30T13:20:42.134Z,35.45
2022-10-30T13:23:19.563Z,33.80
2022-10-30T13:26:08.128Z,34.22
2022-10-30T13:28:52.362Z,34.67
2022-10-30T13:31:44.583Z,35.59
2022-10-30T13:34:39.737Z,36.57
2022-10-30T13:37:06.305Z,36.37
2022-10-30T13:39:46.758Z,36.33
2022-10-30T13:42:19.251Z,34.72
2022-10-30T13:44:58.271Z,35.07
2022-10-30T13:47:34.486Z,35.35
2022-10-30T13:50:12.640Z,37.21
2022-10-30T13:52:44.318Z,37.58
2022-10-30T13:55:21.214Z,38.10
2022-10-30T13:58:01.367Z,41.83
2022-10-30T14:01:07.067Z,42.22
2022-10-30T14:04:01.924Z,44.14
2022-10-30T14:06:42.935Z,45.58
2022-10-30T14:09:37.113Z,46.40
2022-10-30T14:12:41.345Z,46.67
2022-10-30T14:15:31.147Z,46.31
2022-10-30T14:18:28.118Z,47.62
2022-10-30T14:20:57.634Z,48.97
2022-10-30T14:23:37.628Z,48.76
2022-10-30T14:26:04.090Z,49.24
2022-10-30T14:28:32.475Z,49.86
2022-10-30T14:31:35.768Z,51.14
2022-10-30T14:34:02.397Z,50.56
2022-10-30T14:36:38.238Z,50.33
2022-10-30T14:39:10.763Z,50.80
2022-10-30T14:41:57.698Z,51.56
2022-10-30T14:45:12.775Z,51.72
2022-10-30T14:47:58.100Z,53.10
2022-10-30T14:50:27.511Z,52.76
2022-10-30T14:53:00.253Z,54.15
2022-10-30T14:55:33.409Z,54.54
2022-10-30T14:58:02.845Z,54.56
2022-10-30T15:00:35.219Z,54.93
2022-10-30T15:03:14.800Z,54.69
2022-10-30T15:05:44.551Z,54.55
2022-10-30T15:08:47.807Z,54.37
2022-10-30T15:11:26.866Z,54.77
2022-10-30T15:14:02.808Z,54.60
2022-10-30T15:16:30.688Z,54.73
2022-10-30T15:19:05.322Z,55.56
2022-10-30T15:21:39.492Z,54.93
2022-10-30T15:24:15.464Z,55.30
2022-10-30T15:26:45.488Z,56.30
2022-10-30T15:29:19.366Z,55.91
2022-10-30T15:31:45.806Z,55.67
2022-10-30T15:34:22.904Z,55.46
2022-10-30T15:36:49.394Z,56.35
2022-10-30T15:39:20.104Z,56.67
2022-10-30T15:41:53.918Z,57.24
2022-10-30T15:44:24.486Z,58.24
2022-10-30T15:46:53.296Z,58.26
2022-10-30T15:49:40.222Z,58.97
2022-10-30T15:52:20.609Z,58.91
2022-10-30T15:54:52.126Z,58.76
2022-10-30T15:58:01.036Z,58.41
2022-10-30T16:00:23.827Z,59.02
2022-10-30T16:03:01.708Z,59.33
2022-10-30T16:05:28.584Z,60.34
2022-10-30T16:07:57.640Z,60.16
2022-10-30T16:10:42.777Z,59.78
2022-10-30T16:13:21.916Z,60.12
2022-10-30T16:15:49.685Z,60.00
2022-10-30T16:18:23.807Z,60.37
2022-10-30T16:21:06.882Z,59.94
2022-10-30T16:23:49.199Z,60.33
2022-10-30T16:26:29.975Z,60.29
2022-10-30T16:28:57.617Z,60.55
2022-10-30T16:31:29.657Z,60.33
2022-10-30T16:33:58.484Z,60.61
2022-10-30T16:36:25.498Z,61.27
2022-10-30T16:38:52.375Z,61.87
2022-10-30T16:41:22.809Z,62.18
2022-10-30T16:44:26.867Z,62.20
2022-10-30T16:46:57.056Z,62.37
2022-10-30T16:49:27.661Z,63.39
2022-10-30T16:52:00.200Z,63.85
2022-10-30T16:55:17.538Z,63.47
2022-10-30T16:57:47.229Z,62.98
2022-10-30T17:00:25.954Z,63.65
2022-10-30T17:02:56.121Z,64.42
2022-10-30T17:05:36.906Z,64.71
2022-10-30T17:08:16.898Z,64.91
2022-10-30T17:11:00.703Z,66.97
2022-10-30T17:13:33.778Z,67.02
2022-10-30T17:16:24.670Z,66.27
2022-10-30T17:18:53.404Z,66.79
2022-10-30T17:21:25.869Z,67.05
2022-10-30T17:23:55.717Z,67.50
2022-10-30T17:26:22.230Z,67.74
2022-10-30T17:28:48.988Z,68.17
2022-10-30T17:31:19.576Z,68.59
2022-10-30T17:33:46.966Z,69.18
2022-10-30T17:36:13.936Z,68.54
2022-10-30T17:38:40.358Z,68.48
2022-10-30T17:41:08.256Z,68.88
2022-10-30T17:43:48.118Z,69.13
2022-10-30T17:46:19.236Z,69.15
2022-10-30T17:48:47.570Z,69.36
2022-10-30T17:51:15.273Z,71.07
2022-10-30T17:53:42.217Z,70.85
2022-10-30T17:56:15.965Z,70.82
2022-10-30T17:58:42.458Z,70.68
2022-10-30T18:01:29.394Z,70.69
2022-10-30T18:03:56.327Z,71.07
2022-10-30T18:06:25.670Z,71.39
2022-10-30T18:08:53.236Z,71.74
2022-10-30T18:11:22.538Z,72.45
2022-10-30T18:13:50.857Z,71.61
2022-10-30T18:16:18.971Z,71.03
2022-10-30T18:18:45.864Z,71.04
2022-10-30T18:21:14.125Z,71.38
2022-10-30T18:23:55.953Z,71.85
2022-10-30T18:26:25.159Z,72.26
2022-10-30T18:28:56.929Z,72.58
2022-10-30T18:31:24.393Z,72.63
2022-10-30T18:33:54.011Z,73.05
2022-10-30T18:36:23.379Z,73.20
2022-10-30T18:38:50.539Z,72.60
2022-10-30T18:41:21.422Z,72.83
2022-10-30T18:43:47.954Z,73.08
2022-10-30T18:46:15.692Z,72.67
2022-10-30T18:48:42.567Z,72.99
2022-10-30T18:51:28.324Z,73.89
2022-10-30T18:53:56.790Z,74.01
2022-10-30T18:56:26.724Z,74.37
2022-10-30T18:58:58.426Z,74.89
2022-10-30T19:01:31.312Z,75.05
2022-10-30T19:04:00.722Z,74.98
2022-10-30T19:06:27.191Z,74.17
2022-10-30T19:08:53.687Z,74.48
2022-10-30T19:11:24.607Z,74.55
2022-10-30T19:13:53.268Z,73.79
2022-10-30T19:16:21.026Z,74.04
2022-10-30T19:18:48.371Z,73.54
2022-10-30T19:21:17.887Z,73.69
2022-10-30T19:23:44.682Z,74.21
2022-10-30T19:26:13.362Z,74.53
2022-10-30T19:28:40.995Z,74.42
2022-10-30T19:31:11.190Z,74.43
2022-10-30T19:33:37.642Z,74.74
2022-10-30T19:36:04.939Z,74.50
2022-10-30T19:38:32.593Z,74.69
2022-10-30T19:41:00.453Z,74.39
2022-10-30T19:43:27.022Z,74.00
2022-10-30T19:45:56.691Z,74.47
2022-10-30T19:48:47.629Z,74.81
2022-10-30T19:51:11.741Z,74.92
2022-10-30T19:53:39.523Z,75.12
2022-10-30T19:56:06.740Z,75.97
2022-10-30T19:58:33.164Z,76.59
2022-10-30T20:00:59.647Z,77.11
2022-10-30T20:03:26.206Z,77.06
2022-10-30T20:05:52.861Z,76.68
2022-10-30T20:08:21.801Z,76.74
2022-10-30T20:11:02.055Z,76.90
2022-10-30T20:13:29.803Z,77.60
2022-10-30T20:15:59.163Z,78.60
2022-10-30T20:18:30.218Z,77.67
2022-10-30T20:20:59.954Z,77.81
2022-10-30T20:23:27.297Z,77.91
2022-10-30T20:25:57.751Z,77.89
2022-10-30T20:28:35.312Z,77.45
2022-10-30T20:31:02.123Z,77.25
2022-10-30T20:33:28.776Z,77.11
2022-10-30T20:35:55.933Z,76.98
2022-10-30T20:38:26.335Z,77.46
2022-10-30T20:40:53.901Z,77.21
2022-10-30T20:43:24.871Z,76.93
2022-10-30T20:45:51.284Z,78.77
2022-10-30T20:48:17.753Z,78.22
2022-10-30T20:50:49.141Z,78.07
2022-10-30T20:53:17.145Z,77.18
2022-10-30T20:55:44.618Z,76.96
2022-10-30T20:58:11.258Z,76.35
2022-10-30T21:00:38.443Z,76.20
2022-10-30T21:03:05.854Z,77.67
2022-10-30T21:05:49.839Z,77.66
2022-10-30T21:08:16.283Z,77.68
2022-10-30T21:10:42.863Z,77.49
2022-10-30T21:13:10.991Z,77.49
2022-10-30T21:15:39.657Z,77.93
2022-10-30T21:18:06.302Z,77.92
2022-10-30T21:20:32.875Z,78.49
2022-10-30T21:23:00.401Z,78.55
2022-10-30T21:25:26.934Z,79.01
2022-10-30T21:27:56.341Z,79.56
2022-10-30T21:30:22.737Z,79.58
2022-10-30T21:32:49.144Z,79.04
2022-10-30T21:35:16.229Z,78.94
2022-10-30T21:37:42.682Z,78.55
2022-10-30T21:40:09.695Z,78.49
2022-10-30T21:42:36.094Z,78.04
2022-10-30T21:45:02.770Z,78.41
2022-10-30T21:47:29.196Z,78.23
2022-10-30T21:49:55.667Z,78.35
2022-10-30T21:52:22.159Z,77.99
2022-10-30T21:54:48.614Z,78.31
2022-10-30T21:57:15.080Z,78.84
2022-10-30T21:59:41.546Z,78.84
2022-10-30T22:02:13.457Z,78.91
2022-10-30T22:04:40.041Z,78.79
2022-10-30T22:07:06.658Z,78.20
2022-10-30T22:09:33.121Z,78.10
2022-10-30T22:11:59.524Z,79.29
2022-10-30T22:14:26.901Z,79.10
2022-10-30T22:16:53.354Z,78.76
2022-10-30T22:19:19.782Z,80.15
2022-10-30T22:21:46.212Z,81.68
2022-10-30T22:24:13.711Z,80.92
2022-10-30T22:26:40.294Z,80.79
2022-10-30T22:29:06.749Z,81.44
2022-10-30T22:31:33.514Z,82.69
2022-10-30T22:34:00.911Z,82.70
2022-10-30T22:36:30.138Z,81.76
2022-10-30T22:39:00.006Z,79.96
2022-10-30T22:41:31.399Z,80.05
2022-10-30T22:44:01.572Z,79.92
2022-10-30T22:46:29.648Z,79.93
2022-10-30T22:48:57.588Z,79.29
2022-10-30T22:51:25.342Z,79.27
2022-10-30T22:54:00.626Z,78.68
2022-10-30T22:56:31.062Z,79.57
2022-10-30T22:59:00.512Z,79.38
